createdAt,value
2018-10-21T00:00:20.388Z,7.80
2018-10-21T00:00:52.990Z,7.80
2018-10-21T00:01:25.586Z,7.80
2018-10-21T00:01:58.211Z,7.80
2018-10-21T00:02:30.854Z,7.70
2018-10-21T00:03:03.479Z,7.70
2018-10-21T00:03:36.096Z,7.70
2018-10-21T00:04:08.667Z,7.70
2018-10-21T00:04:41.281Z,7.70
2018-10-21T00:05:13.907Z,7.70
2018-10-21T00:05:46.530Z,7.70
2018-10-21T00:06:19.151Z,7.70
2018-10-21T00:06:51.734Z,7.60
2018-10-21T00:07:24.370Z,7.60
2018-10-21T00:07:56.928Z,7.60
2018-10-21T00:08:29.503Z,7.60
2018-10-21T00:09:02.190Z,7.60
2018-10-21T00:09:34.778Z,7.60
2018-10-21T00:10:08.763Z,7.60
2018-10-21T00:10:41.380Z,7.60
2018-10-21T00:11:14.234Z,7.50
2018-10-21T00:11:46.872Z,7.50
2018-10-21T00:12:19.480Z,7.50
2018-10-21T00:12:52.072Z,7.40
2018-10-21T00:13:24.686Z,7.40
2018-10-21T00:13:57.271Z,7.40
2018-10-21T00:14:29.859Z,7.40
2018-10-21T00:15:02.541Z,7.40
2018-10-21T00:15:35.280Z,7.40
2018-10-21T00:16:07.735Z,7.30
2018-10-21T00:16:40.324Z,7.20
2018-10-21T00:17:12.912Z,7.20
2018-10-21T00:17:45.474Z,7.20
2018-10-21T00:18:18.104Z,7.20
2018-10-21T00:18:50.674Z,7.10
2018-10-21T00:19:23.303Z,7.10
2018-10-21T00:19:55.870Z,7.10
2018-10-21T00:20:28.448Z,7.10
2018-10-21T00:21:01.060Z,7.00
2018-10-21T00:21:33.641Z,7.00
2018-10-21T00:22:06.219Z,7.00
2018-10-21T00:22:38.779Z,7.00
2018-10-21T00:23:11.336Z,6.90
2018-10-21T00:23:43.918Z,6.90
2018-10-21T00:24:16.503Z,6.90
2018-10-21T00:24:49.112Z,6.90
2018-10-21T00:25:21.750Z,6.90
2018-10-21T00:25:54.342Z,6.90
2018-10-21T00:26:26.960Z,6.90
2018-10-21T00:26:59.539Z,6.90
2018-10-21T00:27:32.127Z,6.90
2018-10-21T00:28:05.055Z,6.80
2018-10-21T00:28:37.663Z,6.80
2018-10-21T00:29:10.271Z,6.80
2018-10-21T00:29:42.966Z,6.70
2018-10-21T00:30:15.536Z,6.80
2018-10-21T00:30:48.133Z,6.80
2018-10-21T00:31:20.728Z,6.70
2018-10-21T00:31:53.304Z,6.70
2018-10-21T00:32:57.925Z,6.70
2018-10-21T00:33:30.528Z,6.70
2018-10-21T00:34:03.134Z,6.70
2018-10-21T00:34:35.746Z,6.70
2018-10-21T00:35:08.412Z,6.60
2018-10-21T00:35:41.001Z,6.60
2018-10-21T00:36:13.608Z,6.50
2018-10-21T00:36:46.183Z,6.50
2018-10-21T00:37:18.772Z,6.50
2018-10-21T00:37:51.376Z,6.50
2018-10-21T00:38:23.993Z,6.50
2018-10-21T00:38:56.540Z,6.40
2018-10-21T00:39:29.151Z,6.40
2018-10-21T00:40:01.789Z,6.40
2018-10-21T00:40:34.372Z,6.40
2018-10-21T00:41:06.944Z,6.40
2018-10-21T00:41:39.634Z,6.40
2018-10-21T00:42:12.236Z,6.40
2018-10-21T00:42:44.833Z,6.50
2018-10-21T00:43:17.431Z,6.50
2018-10-21T00:43:50.063Z,6.50
2018-10-21T00:44:22.634Z,6.50
2018-10-21T00:44:55.301Z,6.50
2018-10-21T00:45:27.945Z,6.40
2018-10-21T00:46:00.555Z,6.40
2018-10-21T00:46:33.147Z,6.40
2018-10-21T00:47:05.728Z,6.40
2018-10-21T00:47:38.497Z,6.40
2018-10-21T00:48:11.100Z,6.50
2018-10-21T00:48:43.654Z,6.40
2018-10-21T00:49:16.238Z,6.50
2018-10-21T00:49:48.814Z,6.40
2018-10-21T00:50:21.395Z,6.40
2018-10-21T00:50:54.008Z,6.40
2018-10-21T00:51:26.582Z,6.40
2018-10-21T00:51:59.157Z,6.40
2018-10-21T00:52:31.753Z,6.40
2018-10-21T00:53:04.450Z,6.40
2018-10-21T00:53:37.042Z,6.40
2018-10-21T00:54:14.546Z,6.40
2018-10-21T00:54:47.232Z,6.40
2018-10-21T00:55:19.835Z,6.40
2018-10-21T00:55:52.468Z,6.40
2018-10-21T00:56:25.096Z,6.40
2018-10-21T00:56:57.698Z,6.40
2018-10-21T00:57:30.226Z,6.40
2018-10-21T00:58:02.823Z,6.40
2018-10-21T00:58:35.383Z,6.40
2018-10-21T00:59:08.830Z,6.40
2018-10-21T00:59:41.384Z,6.40
2018-10-21T01:00:13.983Z,6.40
2018-10-21T01:00:46.605Z,6.40
2018-10-21T01:01:19.178Z,6.40
2018-10-21T01:01:51.787Z,6.40
2018-10-21T01:02:24.445Z,6.40
2018-10-21T01:02:57.403Z,6.40
2018-10-21T01:03:29.992Z,6.40
2018-10-21T01:04:02.655Z,6.30
2018-10-21T01:04:35.176Z,6.30
2018-10-21T01:05:09.100Z,6.30
2018-10-21T01:05:41.742Z,6.30
2018-10-21T01:06:14.347Z,6.30
2018-10-21T01:06:46.930Z,6.30
2018-10-21T01:07:19.677Z,6.30
2018-10-21T01:07:52.731Z,6.30
2018-10-21T01:08:25.336Z,6.30
2018-10-21T01:08:57.982Z,6.30
2018-10-21T01:09:30.567Z,6.30
2018-10-21T01:10:03.254Z,6.30
2018-10-21T01:10:35.831Z,6.30
2018-10-21T01:11:08.418Z,6.30
2018-10-21T01:11:41.855Z,6.30
2018-10-21T01:12:18.040Z,6.30
2018-10-21T01:12:50.659Z,6.30
2018-10-21T01:13:23.265Z,6.30
2018-10-21T01:13:55.847Z,6.30
2018-10-21T01:14:28.406Z,6.30
2018-10-21T01:15:01.113Z,6.30
2018-10-21T01:15:33.684Z,6.30
2018-10-21T01:16:06.302Z,6.30
2018-10-21T01:16:38.872Z,6.30
2018-10-21T01:17:11.808Z,6.30
2018-10-21T01:17:44.367Z,6.30
2018-10-21T01:18:17.015Z,6.30
2018-10-21T01:18:51.575Z,6.30
2018-10-21T01:19:26.716Z,6.30
2018-10-21T01:20:02.165Z,6.30
2018-10-21T01:20:36.819Z,6.30
2018-10-21T01:21:11.567Z,6.30
2018-10-21T01:21:46.507Z,6.40
2018-10-21T01:22:21.129Z,6.30
2018-10-21T01:22:53.729Z,6.30
2018-10-21T01:23:26.395Z,6.30
2018-10-21T01:23:58.980Z,6.30
2018-10-21T01:24:31.574Z,6.30
2018-10-21T01:25:04.451Z,6.30
2018-10-21T01:25:37.029Z,6.20
2018-10-21T01:26:09.608Z,6.20
2018-10-21T01:26:42.207Z,6.20
2018-10-21T01:27:14.849Z,6.20
2018-10-21T01:27:47.362Z,6.20
2018-10-21T01:28:19.951Z,6.20
2018-10-21T01:28:52.554Z,6.20
2018-10-21T01:29:25.121Z,6.20
2018-10-21T01:29:57.852Z,6.10
2018-10-21T01:30:30.414Z,6.20
2018-10-21T01:31:02.974Z,6.10
2018-10-21T01:31:35.550Z,6.10
2018-10-21T01:32:08.107Z,6.10
2018-10-21T01:32:40.723Z,6.10
2018-10-21T01:33:13.395Z,6.10
2018-10-21T01:33:45.951Z,6.10
2018-10-21T01:34:18.548Z,6.10
2018-10-21T01:34:51.172Z,6.10
2018-10-21T01:35:23.750Z,6.10
2018-10-21T01:35:56.330Z,6.10
2018-10-21T01:36:29.077Z,6.10
2018-10-21T01:37:01.553Z,6.10
2018-10-21T01:37:34.099Z,6.00
2018-10-21T01:38:06.698Z,6.00
2018-10-21T01:38:39.287Z,6.00
2018-10-21T01:39:12.252Z,6.00
2018-10-21T01:40:52.139Z,6.00
2018-10-21T01:41:24.690Z,6.00
2018-10-21T01:41:57.279Z,6.00
2018-10-21T01:42:29.876Z,6.00
2018-10-21T01:43:02.844Z,5.90
2018-10-21T01:43:35.444Z,5.90
2018-10-21T01:44:08.013Z,5.90
2018-10-21T01:44:40.588Z,5.90
2018-10-21T01:45:13.238Z,5.90
2018-10-21T01:45:45.807Z,5.90
2018-10-21T01:46:18.410Z,5.90
2018-10-21T01:46:50.991Z,5.90
2018-10-21T01:47:23.590Z,5.90
2018-10-21T01:47:57.778Z,5.90
2018-10-21T01:48:31.170Z,5.90
2018-10-21T01:49:03.767Z,5.90
2018-10-21T01:49:36.352Z,6.00
2018-10-21T01:50:08.926Z,5.90
2018-10-21T01:50:41.514Z,5.90
2018-10-21T01:51:14.104Z,6.00
2018-10-21T01:51:46.710Z,6.00
2018-10-21T01:52:19.259Z,6.00
2018-10-21T01:52:52.069Z,6.00
2018-10-21T01:53:24.957Z,6.00
2018-10-21T01:53:57.519Z,6.00
2018-10-21T01:54:30.099Z,6.00
2018-10-21T01:55:02.688Z,6.00
2018-10-21T01:55:35.279Z,6.00
2018-10-21T01:56:07.847Z,6.00
2018-10-21T01:56:40.390Z,6.00
2018-10-21T01:57:13.010Z,6.00
2018-10-21T01:57:45.676Z,6.00
2018-10-21T01:58:18.319Z,6.00
2018-10-21T01:58:50.916Z,6.00
2018-10-21T01:59:23.472Z,5.90
2018-10-21T01:59:56.053Z,5.90
2018-10-21T02:00:29.392Z,5.90
2018-10-21T02:01:02.032Z,5.80
2018-10-21T02:01:34.602Z,5.90
2018-10-21T02:02:07.252Z,5.80
2018-10-21T02:02:39.866Z,5.80
2018-10-21T02:03:12.579Z,5.80
2018-10-21T02:03:45.095Z,5.80
2018-10-21T02:04:17.711Z,5.80
2018-10-21T02:04:50.271Z,5.80
2018-10-21T02:05:23.078Z,5.80
2018-10-21T02:05:55.694Z,5.80
2018-10-21T02:06:28.351Z,5.80
2018-10-21T02:07:00.930Z,5.80
2018-10-21T02:07:33.474Z,5.80
2018-10-21T02:08:06.144Z,5.80
2018-10-21T02:08:38.776Z,5.80
2018-10-21T02:09:11.468Z,5.80
2018-10-21T02:09:43.975Z,5.80
2018-10-21T02:10:16.556Z,5.80
2018-10-21T02:10:49.139Z,5.80
2018-10-21T02:11:21.731Z,5.80
2018-10-21T02:11:54.298Z,5.80
2018-10-21T02:12:26.983Z,5.90
2018-10-21T02:12:59.582Z,5.80
2018-10-21T02:13:32.202Z,5.80
2018-10-21T02:14:05.107Z,5.80
2018-10-21T02:14:37.639Z,5.90
2018-10-21T02:15:11.513Z,5.80
2018-10-21T02:15:43.979Z,5.80
2018-10-21T02:16:16.564Z,5.80
2018-10-21T02:16:49.122Z,5.80
2018-10-21T02:17:21.684Z,5.80
2018-10-21T02:17:54.260Z,5.80
2018-10-21T02:18:26.863Z,5.80
2018-10-21T02:18:59.504Z,5.80
2018-10-21T02:19:32.092Z,5.70
2018-10-21T02:20:05.159Z,5.70
2018-10-21T02:20:37.739Z,5.70
2018-10-21T02:21:10.339Z,5.70
2018-10-21T02:21:42.900Z,5.80
2018-10-21T02:22:15.496Z,5.70
2018-10-21T02:22:48.395Z,5.70
2018-10-21T02:23:20.978Z,5.70
2018-10-21T02:23:53.555Z,5.70
2018-10-21T02:24:26.181Z,5.70
2018-10-21T02:24:58.770Z,5.70
2018-10-21T02:25:31.339Z,5.70
2018-10-21T02:26:03.986Z,5.70
2018-10-21T02:26:36.609Z,5.60
2018-10-21T02:27:09.217Z,5.60
2018-10-21T02:27:42.454Z,5.60
2018-10-21T02:28:15.022Z,5.60
2018-10-21T02:28:47.620Z,5.60
2018-10-21T02:29:20.204Z,5.60
2018-10-21T02:29:52.845Z,5.60
2018-10-21T02:30:27.774Z,5.60
2018-10-21T02:31:00.407Z,5.60
2018-10-21T02:31:32.979Z,5.60
2018-10-21T02:32:05.828Z,5.50
2018-10-21T02:32:38.394Z,5.50
2018-10-21T02:33:11.041Z,5.50
2018-10-21T02:33:43.633Z,5.50
2018-10-21T02:34:16.189Z,5.50
2018-10-21T02:34:48.775Z,5.50
2018-10-21T02:35:21.779Z,5.50
2018-10-21T02:35:54.362Z,5.40
2018-10-21T02:36:26.964Z,5.40
2018-10-21T02:36:59.606Z,5.40
2018-10-21T02:37:32.204Z,5.40
2018-10-21T02:38:05.109Z,5.40
2018-10-21T02:38:37.663Z,5.40
2018-10-21T02:39:10.254Z,5.40
2018-10-21T02:39:42.810Z,5.30
2018-10-21T02:41:37.463Z,5.30
2018-10-21T02:42:10.075Z,5.30
2018-10-21T02:42:42.644Z,5.30
2018-10-21T02:43:15.245Z,5.30
2018-10-21T02:43:47.869Z,5.30
2018-10-21T02:44:21.249Z,5.30
2018-10-21T02:44:53.843Z,5.30
2018-10-21T02:45:26.415Z,5.30
2018-10-21T02:45:58.998Z,5.30
2018-10-21T02:46:32.020Z,5.40
2018-10-21T02:47:04.797Z,5.40
2018-10-21T02:47:37.393Z,5.40
2018-10-21T02:48:09.966Z,5.30
2018-10-21T02:48:42.706Z,5.40
2018-10-21T02:49:16.101Z,5.30
2018-10-21T02:49:48.661Z,5.30
2018-10-21T02:50:21.243Z,5.30
2018-10-21T02:50:53.814Z,5.30
2018-10-21T02:51:26.402Z,5.30
2018-10-21T02:52:04.779Z,5.30
2018-10-21T02:52:37.414Z,5.30
2018-10-21T02:53:10.039Z,5.30
2018-10-21T02:53:42.587Z,5.30
2018-10-21T02:54:15.226Z,5.30
2018-10-21T02:54:47.819Z,5.30
2018-10-21T02:55:20.382Z,5.20
2018-10-21T02:55:52.938Z,5.20
2018-10-21T02:56:25.526Z,5.20
2018-10-21T02:56:58.302Z,5.20
2018-10-21T02:57:30.952Z,5.30
2018-10-21T02:58:03.565Z,5.30
2018-10-21T02:58:36.735Z,5.20
2018-10-21T02:59:09.340Z,5.30
2018-10-21T02:59:41.915Z,5.30
2018-10-21T03:00:14.478Z,5.20
2018-10-21T03:00:47.050Z,5.20
2018-10-21T03:01:19.681Z,5.20
2018-10-21T03:01:52.334Z,5.30
2018-10-21T03:02:24.890Z,5.30
2018-10-21T03:02:57.499Z,5.30
2018-10-21T03:03:30.086Z,5.30
2018-10-21T03:04:02.754Z,5.30
2018-10-21T03:04:35.348Z,5.40
2018-10-21T03:05:07.915Z,5.40
2018-10-21T03:05:40.485Z,5.40
2018-10-21T03:06:13.087Z,5.40
2018-10-21T03:06:45.689Z,5.40
2018-10-21T03:07:18.280Z,5.40
2018-10-21T03:07:50.884Z,5.40
2018-10-21T03:08:23.488Z,5.40
2018-10-21T03:08:56.092Z,5.30
2018-10-21T03:09:29.139Z,5.30
2018-10-21T03:10:01.711Z,5.30
2018-10-21T03:10:34.319Z,5.30
2018-10-21T03:11:07.029Z,5.30
2018-10-21T03:11:39.611Z,5.30
2018-10-21T03:12:12.185Z,5.30
2018-10-21T03:12:44.795Z,5.30
2018-10-21T03:13:17.365Z,5.30
2018-10-21T03:13:49.966Z,5.30
2018-10-21T03:14:22.596Z,5.30
2018-10-21T03:14:55.205Z,5.30
2018-10-21T03:15:27.816Z,5.30
2018-10-21T03:16:00.495Z,5.20
2018-10-21T03:16:33.067Z,5.20
2018-10-21T03:17:05.629Z,5.20
2018-10-21T03:17:38.219Z,5.20
2018-10-21T03:18:10.804Z,5.20
2018-10-21T03:18:43.394Z,5.20
2018-10-21T03:19:16.395Z,5.20
2018-10-21T03:19:49.006Z,5.20
2018-10-21T03:20:21.603Z,5.20
2018-10-21T03:20:54.501Z,5.20
2018-10-21T03:21:27.102Z,5.20
2018-10-21T03:21:59.695Z,5.20
2018-10-21T03:22:32.307Z,5.20
2018-10-21T03:23:05.294Z,5.10
2018-10-21T03:23:37.883Z,5.10
2018-10-21T03:24:10.467Z,5.10
2018-10-21T03:24:43.046Z,5.10
2018-10-21T03:25:15.665Z,5.10
2018-10-21T03:25:48.239Z,5.10
2018-10-21T03:26:20.835Z,5.00
2018-10-21T03:26:53.435Z,5.10
2018-10-21T03:27:26.011Z,5.10
2018-10-21T03:27:58.598Z,5.10
2018-10-21T03:28:31.791Z,5.10
2018-10-21T03:29:04.470Z,5.10
2018-10-21T03:29:37.069Z,5.10
2018-10-21T03:30:09.669Z,5.10
2018-10-21T03:30:42.366Z,5.10
2018-10-21T03:31:14.940Z,5.10
2018-10-21T03:31:47.518Z,5.10
2018-10-21T03:32:20.109Z,5.10
2018-10-21T03:32:52.743Z,5.10
2018-10-21T03:33:25.408Z,5.00
2018-10-21T03:33:58.016Z,5.10
2018-10-21T03:34:30.459Z,5.10
2018-10-21T03:35:03.113Z,5.10
2018-10-21T03:35:36.165Z,5.10
2018-10-21T03:36:08.766Z,5.10
2018-10-21T03:36:41.365Z,5.00
2018-10-21T03:37:13.964Z,5.00
2018-10-21T03:37:46.577Z,5.00
2018-10-21T03:38:19.161Z,5.00
2018-10-21T03:38:51.767Z,5.10
2018-10-21T03:39:24.379Z,5.00
2018-10-21T03:39:57.010Z,5.00
2018-10-21T03:40:29.555Z,5.00
2018-10-21T03:41:02.128Z,5.00
2018-10-21T03:41:34.808Z,5.00
2018-10-21T03:42:07.387Z,5.00
2018-10-21T03:42:40.024Z,5.00
2018-10-21T03:43:12.631Z,4.90
2018-10-21T03:43:45.195Z,4.90
2018-10-21T03:44:17.800Z,4.90
2018-10-21T03:44:50.396Z,4.90
2018-10-21T03:45:23.828Z,4.90
2018-10-21T03:45:56.459Z,4.90
2018-10-21T03:46:28.971Z,4.90
2018-10-21T03:47:01.593Z,4.90
2018-10-21T03:47:34.163Z,4.90
2018-10-21T03:48:06.738Z,4.90
2018-10-21T03:48:39.376Z,4.90
2018-10-21T03:49:11.943Z,4.90
2018-10-21T03:49:44.502Z,4.90
2018-10-21T03:50:17.203Z,4.80
2018-10-21T03:50:49.770Z,4.80
2018-10-21T03:51:22.331Z,4.90
2018-10-21T03:51:54.901Z,4.90
2018-10-21T03:52:27.519Z,4.90
2018-10-21T03:53:00.172Z,4.90
2018-10-21T03:53:32.778Z,4.90
2018-10-21T03:54:05.442Z,4.90
2018-10-21T03:54:39.903Z,4.90
2018-10-21T03:55:12.539Z,4.90
2018-10-21T03:55:45.236Z,4.90
2018-10-21T03:56:17.855Z,4.90
2018-10-21T03:56:50.476Z,4.90
2018-10-21T03:57:23.113Z,4.90
2018-10-21T03:57:55.795Z,4.90
2018-10-21T03:58:28.433Z,4.90
2018-10-21T03:59:01.121Z,4.90
2018-10-21T03:59:33.724Z,4.90
2018-10-21T04:00:07.672Z,4.90
2018-10-21T04:00:40.358Z,4.90
2018-10-21T04:01:12.974Z,4.90
2018-10-21T04:01:45.573Z,4.90
2018-10-21T04:02:18.220Z,4.90
2018-10-21T04:02:51.012Z,4.90
2018-10-21T04:03:23.639Z,4.90
2018-10-21T04:03:56.326Z,4.90
2018-10-21T04:04:28.931Z,4.90
2018-10-21T04:05:01.575Z,4.90
2018-10-21T04:05:34.686Z,4.90
2018-10-21T04:06:07.307Z,4.90
2018-10-21T04:06:39.917Z,4.90
2018-10-21T04:07:12.542Z,4.80
2018-10-21T04:07:45.177Z,4.80
2018-10-21T04:08:17.907Z,4.80
2018-10-21T04:08:50.550Z,4.80
2018-10-21T04:09:23.159Z,4.80
2018-10-21T04:09:55.759Z,4.80
2018-10-21T04:10:28.407Z,4.80
2018-10-21T04:11:01.023Z,4.70
2018-10-21T04:11:33.623Z,4.70
2018-10-21T04:12:06.230Z,4.70
2018-10-21T04:12:38.835Z,4.70
2018-10-21T04:13:11.466Z,4.70
2018-10-21T04:13:44.068Z,4.70
2018-10-21T04:14:16.737Z,4.70
2018-10-21T04:14:49.358Z,4.70
2018-10-21T04:15:21.999Z,4.70
2018-10-21T04:15:54.705Z,4.70
2018-10-21T04:16:27.314Z,4.60
2018-10-21T04:16:59.915Z,4.60
2018-10-21T04:17:32.507Z,4.60
2018-10-21T04:18:05.144Z,4.60
2018-10-21T04:18:37.747Z,4.60
2018-10-21T04:19:10.326Z,4.60
2018-10-21T04:19:42.962Z,4.60
2018-10-21T04:20:15.567Z,4.60
2018-10-21T04:20:48.146Z,4.60
2018-10-21T04:21:20.747Z,4.60
2018-10-21T04:21:53.388Z,4.60
2018-10-21T04:22:26.036Z,4.60
2018-10-21T04:22:59.852Z,4.70
2018-10-21T04:23:32.479Z,4.60
2018-10-21T04:24:05.138Z,4.70
2018-10-21T04:24:37.733Z,4.60
2018-10-21T04:25:10.371Z,4.60
2018-10-21T04:25:42.979Z,4.60
2018-10-21T04:26:15.575Z,4.60
2018-10-21T04:26:48.152Z,4.60
2018-10-21T04:27:20.770Z,4.60
2018-10-21T04:27:54.306Z,4.60
2018-10-21T04:28:26.912Z,4.60
2018-10-21T04:28:59.556Z,4.60
2018-10-21T04:29:32.184Z,4.60
2018-10-21T04:30:05.813Z,4.60
2018-10-21T04:30:39.584Z,4.60
2018-10-21T04:31:12.331Z,4.50
2018-10-21T04:31:44.941Z,4.60
2018-10-21T04:32:17.668Z,4.60
2018-10-21T04:33:53.630Z,4.60
2018-10-21T04:34:26.231Z,4.50
2018-10-21T04:34:58.833Z,4.50
2018-10-21T04:35:31.881Z,4.50
2018-10-21T04:36:04.531Z,4.50
2018-10-21T04:36:37.208Z,4.50
2018-10-21T04:37:21.255Z,4.50
2018-10-21T04:40:12.270Z,4.50
2018-10-21T04:40:44.844Z,4.50
2018-10-21T04:41:17.476Z,4.50
2018-10-21T04:41:50.124Z,4.40
2018-10-21T04:42:22.760Z,4.40
2018-10-21T04:42:55.409Z,4.40
2018-10-21T04:43:28.044Z,4.40
2018-10-21T04:44:00.679Z,4.40
2018-10-21T04:44:33.288Z,4.40
2018-10-21T04:45:06.502Z,4.40
2018-10-21T04:45:39.211Z,4.40
2018-10-21T04:46:11.917Z,4.30
2018-10-21T04:46:44.619Z,4.30
2018-10-21T04:47:17.244Z,4.30
2018-10-21T04:47:49.855Z,4.30
2018-10-21T04:48:22.471Z,4.30
2018-10-21T04:48:55.101Z,4.30
2018-10-21T04:49:27.759Z,4.30
2018-10-21T04:50:00.387Z,4.30
2018-10-21T04:50:32.991Z,4.30
2018-10-21T04:51:05.615Z,4.30
2018-10-21T04:51:38.212Z,4.30
2018-10-21T04:52:11.205Z,4.30
2018-10-21T04:52:43.691Z,4.30
2018-10-21T04:53:16.336Z,4.30
2018-10-21T04:53:48.951Z,4.20
2018-10-21T04:54:21.566Z,4.20
2018-10-21T04:54:54.162Z,4.20
2018-10-21T04:55:26.775Z,4.20
2018-10-21T04:55:59.363Z,4.20
2018-10-21T04:56:31.979Z,4.20
2018-10-21T04:57:06.584Z,4.20
2018-10-21T04:57:40.376Z,4.20
2018-10-21T04:58:13.148Z,4.20
2018-10-21T04:58:45.718Z,4.20
2018-10-21T04:59:18.352Z,4.20
2018-10-21T04:59:50.970Z,4.20
2018-10-21T05:00:23.578Z,4.20
2018-10-21T05:00:56.187Z,4.20
2018-10-21T05:01:28.882Z,4.20
2018-10-21T05:02:01.808Z,4.20
2018-10-21T05:02:34.430Z,4.30
2018-10-21T05:03:07.090Z,4.20
2018-10-21T05:03:39.676Z,4.30
2018-10-21T05:04:12.318Z,4.20
2018-10-21T05:04:44.912Z,4.30
2018-10-21T05:05:17.554Z,4.30
2018-10-21T05:05:50.180Z,4.20
2018-10-21T05:06:22.846Z,4.20
2018-10-21T05:06:55.447Z,4.20
2018-10-21T05:07:28.175Z,4.20
2018-10-21T05:08:00.804Z,4.20
2018-10-21T05:08:33.415Z,4.20
2018-10-21T05:09:06.306Z,4.20
2018-10-21T05:09:38.933Z,4.20
2018-10-21T05:10:18.047Z,4.20
2018-10-21T05:10:50.639Z,4.20
2018-10-21T05:11:23.376Z,4.20
2018-10-21T05:11:56.001Z,4.20
2018-10-21T05:12:28.608Z,4.20
2018-10-21T05:13:01.435Z,4.20
2018-10-21T05:13:34.086Z,4.20
2018-10-21T05:14:06.703Z,4.20
2018-10-21T05:14:39.340Z,4.20
2018-10-21T05:15:11.993Z,4.20
2018-10-21T05:15:44.591Z,4.20
2018-10-21T05:16:17.332Z,4.20
2018-10-21T05:16:49.872Z,4.20
2018-10-21T05:17:22.467Z,4.20
2018-10-21T05:17:55.171Z,4.20
2018-10-21T05:18:27.771Z,4.20
2018-10-21T05:19:00.439Z,4.20
2018-10-21T05:19:33.062Z,4.20
2018-10-21T05:20:05.763Z,4.20
2018-10-21T05:20:38.416Z,4.20
2018-10-21T05:21:11.015Z,4.30
2018-10-21T05:21:43.618Z,4.20
2018-10-21T05:22:16.312Z,4.20
2018-10-21T05:22:49.140Z,4.20
2018-10-21T05:23:21.738Z,4.20
2018-10-21T05:23:54.343Z,4.20
2018-10-21T05:24:26.979Z,4.20
2018-10-21T05:24:59.602Z,4.20
2018-10-21T05:25:32.234Z,4.20
2018-10-21T05:26:04.854Z,4.20
2018-10-21T05:26:37.917Z,4.20
2018-10-21T05:27:10.555Z,4.20
2018-10-21T05:27:43.192Z,4.20
2018-10-21T05:28:15.828Z,4.20
2018-10-21T05:28:48.456Z,4.20
2018-10-21T05:29:21.096Z,4.20
2018-10-21T05:29:53.850Z,4.20
2018-10-21T05:30:26.488Z,4.20
2018-10-21T05:30:59.120Z,4.10
2018-10-21T05:31:31.892Z,4.10
2018-10-21T05:32:04.667Z,4.10
2018-10-21T05:32:37.251Z,4.10
2018-10-21T05:33:09.865Z,4.10
2018-10-21T05:33:42.496Z,4.10
2018-10-21T05:34:15.173Z,4.10
2018-10-21T05:34:47.728Z,4.10
2018-10-21T05:35:20.730Z,4.10
2018-10-21T05:35:53.356Z,4.00
2018-10-21T05:36:25.963Z,4.00
2018-10-21T05:36:58.567Z,4.00
2018-10-21T05:37:31.190Z,4.00
2018-10-21T05:38:03.861Z,4.00
2018-10-21T05:38:36.459Z,4.00
2018-10-21T05:39:10.307Z,4.00
2018-10-21T05:39:42.899Z,4.00
2018-10-21T05:40:16.918Z,3.90
2018-10-21T05:40:49.536Z,3.90
2018-10-21T05:41:22.201Z,4.00
2018-10-21T05:41:54.824Z,4.00
2018-10-21T05:42:27.451Z,4.00
2018-10-21T05:43:00.044Z,3.90
2018-10-21T05:43:32.672Z,3.90
2018-10-21T05:44:05.455Z,3.90
2018-10-21T05:44:38.081Z,3.90
2018-10-21T05:45:10.699Z,3.90
2018-10-21T05:45:43.354Z,3.90
2018-10-21T05:46:28.302Z,3.90
2018-10-21T05:47:00.964Z,3.90
2018-10-21T05:47:33.921Z,3.90
2018-10-21T05:48:06.595Z,3.90
2018-10-21T05:48:39.224Z,3.90
2018-10-21T05:49:11.911Z,3.90
2018-10-21T05:49:44.526Z,3.80
2018-10-21T05:50:17.327Z,3.80
2018-10-21T05:50:49.944Z,3.80
2018-10-21T05:51:22.559Z,3.90
2018-10-21T05:51:55.193Z,3.90
2018-10-21T05:52:27.826Z,3.90
2018-10-21T05:53:00.423Z,3.80
2018-10-21T05:53:33.022Z,3.90
2018-10-21T05:54:06.126Z,3.90
2018-10-21T05:54:40.637Z,3.90
2018-10-21T05:55:13.905Z,3.90
2018-10-21T05:55:46.526Z,3.90
2018-10-21T05:56:19.158Z,3.90
2018-10-21T05:56:51.758Z,3.90
2018-10-21T05:57:24.395Z,3.90
2018-10-21T05:57:57.110Z,3.90
2018-10-21T05:58:29.710Z,3.90
2018-10-21T05:59:02.348Z,3.90
2018-10-21T05:59:34.947Z,3.90
2018-10-21T06:00:09.511Z,3.90
2018-10-21T06:00:42.127Z,3.90
2018-10-21T06:01:14.802Z,3.90
2018-10-21T06:01:47.940Z,3.90
2018-10-21T06:02:20.571Z,3.90
2018-10-21T06:02:53.282Z,3.90
2018-10-21T06:03:25.950Z,3.90
2018-10-21T06:03:58.879Z,3.90
2018-10-21T06:04:31.463Z,3.90
2018-10-21T06:05:08.868Z,3.90
2018-10-21T06:05:43.771Z,3.90
2018-10-21T06:06:16.406Z,3.90
2018-10-21T06:06:49.036Z,3.90
2018-10-21T06:07:22.055Z,3.90
2018-10-21T06:07:54.728Z,3.90
2018-10-21T06:08:27.469Z,3.80
2018-10-21T06:09:00.079Z,3.90
2018-10-21T06:09:32.702Z,3.90
2018-10-21T06:10:05.677Z,3.90
2018-10-21T06:10:38.307Z,3.90
2018-10-21T06:11:10.981Z,3.90
2018-10-21T06:11:43.647Z,3.90
2018-10-21T06:12:16.271Z,3.90
2018-10-21T06:12:48.887Z,3.90
2018-10-21T06:13:21.556Z,4.00
2018-10-21T06:13:54.167Z,4.00
2018-10-21T06:14:26.795Z,4.00
2018-10-21T06:14:59.432Z,4.00
2018-10-21T06:15:32.119Z,4.00
2018-10-21T06:16:04.932Z,4.00
2018-10-21T06:16:43.090Z,4.00
2018-10-21T06:17:19.124Z,4.10
2018-10-21T06:17:51.723Z,4.10
2018-10-21T06:18:25.929Z,4.20
2018-10-21T06:19:04.636Z,4.20
2018-10-21T06:19:39.284Z,4.30
2018-10-21T06:21:17.979Z,4.30
2018-10-21T06:21:50.619Z,4.40
2018-10-21T06:22:23.280Z,4.50
2018-10-21T06:22:55.931Z,4.50
2018-10-21T06:23:35.229Z,4.50
2018-10-21T06:24:07.807Z,4.60
2018-10-21T06:24:40.470Z,4.60
2018-10-21T06:25:13.107Z,4.60
2018-10-21T06:25:45.755Z,4.60
2018-10-21T06:26:18.387Z,4.70
2018-10-21T06:26:51.089Z,4.70
2018-10-21T06:28:27.028Z,4.70
2018-10-21T06:28:59.709Z,4.70
2018-10-21T06:29:32.354Z,4.80
2018-10-21T06:30:05.760Z,4.90
2018-10-21T06:30:38.388Z,5.00
2018-10-21T06:31:11.111Z,5.00
2018-10-21T06:31:43.839Z,5.00
2018-10-21T06:32:16.493Z,5.00
2018-10-21T06:32:56.768Z,5.00
2018-10-21T06:33:29.645Z,5.00
2018-10-21T06:34:02.319Z,5.00
2018-10-21T06:34:34.932Z,5.00
2018-10-21T06:35:08.239Z,5.00
2018-10-21T06:35:40.888Z,5.00
2018-10-21T06:36:13.514Z,5.00
2018-10-21T06:36:46.203Z,5.00
2018-10-21T06:37:18.826Z,5.00
2018-10-21T06:37:51.427Z,5.00
2018-10-21T06:38:24.067Z,5.00
2018-10-21T06:38:56.714Z,5.00
2018-10-21T06:39:29.390Z,5.00
2018-10-21T06:40:02.339Z,5.00
2018-10-21T06:40:34.971Z,5.00
2018-10-21T06:41:07.600Z,5.10
2018-10-21T06:41:40.226Z,5.10
2018-10-21T06:42:12.884Z,5.10
2018-10-21T06:42:45.511Z,5.10
2018-10-21T06:43:18.116Z,5.10
2018-10-21T06:43:50.733Z,5.10
2018-10-21T06:44:23.366Z,5.10
2018-10-21T06:44:56.049Z,5.10
2018-10-21T06:45:28.757Z,5.10
2018-10-21T06:46:01.360Z,5.00
2018-10-21T06:46:34.045Z,5.00
2018-10-21T06:47:06.652Z,5.00
2018-10-21T06:48:42.612Z,5.00
2018-10-21T06:49:15.241Z,5.00
2018-10-21T06:49:47.862Z,5.10
2018-10-21T06:50:20.635Z,5.10
2018-10-21T06:50:53.278Z,5.10
2018-10-21T06:51:25.913Z,5.10
2018-10-21T06:51:58.522Z,5.10
2018-10-21T06:52:31.147Z,5.10
2018-10-21T06:53:03.833Z,5.10
2018-10-21T06:53:36.479Z,5.10
2018-10-21T06:54:09.117Z,5.20
2018-10-21T06:54:41.739Z,5.10
2018-10-21T06:55:14.396Z,5.20
2018-10-21T06:55:47.036Z,5.20
2018-10-21T06:56:19.701Z,5.20
2018-10-21T06:56:52.554Z,5.20
2018-10-21T06:57:25.947Z,5.20
2018-10-21T06:57:58.518Z,5.20
2018-10-21T06:58:31.160Z,5.20
2018-10-21T06:59:04.131Z,5.10
2018-10-21T06:59:36.747Z,5.10
2018-10-21T07:00:09.450Z,5.20
2018-10-21T07:00:42.118Z,5.20
2018-10-21T07:01:14.747Z,5.20
2018-10-21T07:01:47.338Z,5.20
2018-10-21T07:02:19.943Z,5.20
2018-10-21T07:02:52.531Z,5.20
2018-10-21T07:03:25.160Z,5.30
2018-10-21T07:03:58.076Z,5.30
2018-10-21T07:04:30.760Z,5.30
2018-10-21T07:05:03.789Z,5.30
2018-10-21T07:06:25.679Z,5.30
2018-10-21T07:06:58.247Z,5.30
2018-10-21T07:07:30.858Z,5.40
2018-10-21T07:08:03.690Z,5.40
2018-10-21T07:08:36.276Z,5.40
2018-10-21T07:09:08.903Z,5.40
2018-10-21T07:09:41.521Z,5.40
2018-10-21T07:10:14.215Z,5.40
2018-10-21T07:10:46.805Z,5.50
2018-10-21T07:11:19.448Z,5.50
2018-10-21T07:11:52.323Z,5.50
2018-10-21T07:12:24.950Z,5.50
2018-10-21T07:12:57.632Z,5.50
2018-10-21T07:13:30.251Z,5.50
2018-10-21T07:14:02.942Z,5.60
2018-10-21T07:14:35.555Z,5.60
2018-10-21T07:15:08.307Z,5.60
2018-10-21T07:15:41.018Z,5.60
2018-10-21T07:16:13.856Z,5.60
2018-10-21T07:16:46.511Z,5.60
2018-10-21T07:17:19.129Z,5.70
2018-10-21T07:17:51.981Z,5.60
2018-10-21T07:18:24.568Z,5.70
2018-10-21T07:18:57.208Z,5.70
2018-10-21T07:19:30.138Z,5.70
2018-10-21T07:20:02.879Z,5.70
2018-10-21T07:20:35.463Z,5.70
2018-10-21T07:21:08.137Z,5.70
2018-10-21T07:21:40.744Z,5.80
2018-10-21T07:22:13.419Z,5.80
2018-10-21T07:22:46.086Z,5.80
2018-10-21T07:23:18.752Z,5.80
2018-10-21T07:23:51.370Z,5.80
2018-10-21T07:24:24.016Z,5.80
2018-10-21T07:24:56.635Z,5.90
2018-10-21T07:25:29.259Z,5.90
2018-10-21T07:26:01.882Z,5.90
2018-10-21T07:26:34.484Z,5.90
2018-10-21T07:27:07.282Z,5.90